sim
Sign-in with your pilot id or email,
or register
Callsign
Passwort

Schedule Details

Flight Number: OEO7977
Departure: Toronto Pearson International Airport (CYYZ) at 00:00
Arrival: Munich Airport (EDDM) at 08:20

Weather Information
Getting current METAR information for CYYZ 191500Z 05004KT 360V080 15SM FEW045 FEW100 FEW230 12/M03 A3044 RMK SC1AC1CI1 SC TR AC TR SLP314
Getting current METAR information for EDDM 191450Z 05004KT 020V080 CAVOK 22/12 Q1018 NOSIG

Schedule Frequency

Route Map